EGJJ Airport Information

Runway Information
Runway 08 Length 5597 ft width 148 ft
Elevation 270 ft Threshold 200 ft Heading 83
Runway 26 Length 5597 ft Width 148 ft
Elevation 271 ft Threshold 299 ft Heading 263
Airport Frequencies
Type APP Name APP Frequency 120.3 MHZ
Type ATIS Name INFO Frequency 112.2 MHZ
Type GND Name GND Frequency 121.9 MHZ
Type RDR Name RDR Frequency 118.55 MHZ
Type TWR Name TWR Frequency 119.45 MHZ
Airport Navaids
Type VOR-DME Name Jersey Frequency 112200 KHZ
Airport Weather Information & NOTAM
ADDS - METARS form results

(0635 UTC 12 September 2022)
Data provider http://aviationweather.gov/metar/data/
 
METAR text: EGJJ 120620Z 10009KT CAVOK 18/15 Q1011
Conditions at: EGJJ (JERSEY AIRPORT , JE) observed 0620 UTC 12 September 2022
Temperature: 18.0°C (64°F)
Dewpoint: 15.0°C (59°F) [RH = 83%]
Pressure (altimeter): 29.85 inches Hg (1011.0 mb)
Winds: from the E (100 degrees) at 10 MPH (9 knots; 4.6 m/s)
Visibility: 6 or more miles (10+ km)
Ceiling: ceiling and visibility are OK
Clouds: unknown
Weather: no significant weather observed at this time

METAR text: EGJJ 120550Z 13008KT CAVOK 18/15 Q1011
Conditions at: EGJJ (JERSEY AIRPORT , JE) observed 0550 UTC 12 September 2022
Temperature: 18.0°C (64°F)
Dewpoint: 15.0°C (59°F) [RH = 83%]
Pressure (altimeter): 29.85 inches Hg (1011.0 mb)
Winds: from the SE (130 degrees) at 9 MPH (8 knots; 4.1 m/s)
Visibility: 6 or more miles (10+ km)
Ceiling: ceiling and visibility are OK
Clouds: unknown
Weather: no significant weather observed at this time

Forecast for: EGJJ (JERSEY AIRPORT , JE)
Text: TAF EGJJ 120458Z 1206/1215 11010KT CAVOK
Forecast period: 0600 to 1500 UTC 12 September 2022
Forecast type: FROM: standard forecast or significant change
Winds: from the ESE (110 degrees) at 12 MPH (10 knots; 5.1 m/s)
Visibility: 6 or more miles (10+ km)
Ceiling: unknown
Clouds: missing
Weather: NSW  (no significant weather)
Text: PROB30
Forecast period: 1000 to 1500 UTC 12 September 2022
Forecast type: TEMPORARY: The following changes expected for less than half the time period
Visibility: 6 or more miles (10+ km)
Ceiling: 7000 feet AGL
Clouds: broken clouds at 7000 feet AGL
Weather: -SHRA  (light rain showers)